Aérodrome :
LOGIN :

S'inscrire | Disclaimer

   EN    FR    IT 

 










Légende :    VFR   VFR Marginal   IFR   IFR Intensif   IFR Très Intensif
Visi : 
Plafond : 
>= 8 km
>= 3000ft
5 à 8 km
1000 à 3000 ft
1500m à 5 km
500 à 1000 ft
800 à 1500m
200 à 500 ft
< 800m
< 200 ft
Symboles :   Orages  Brouillard  Fortes neiges  Fortes précipitations  Vent > 20 kt
SIGMETs :   Divers  Orages  Givrage  Turbulence  Onde Orograph.  Cendres Volcan.






- Altitude de l'aérodrome : 147 ft
- Code IATA : DUS


EDDL - Düsseldorf Int.

DERNIER METAR :
  • 080220Z VRB02KT 9999 FEW022 02/M01 Q1022 NOSIG

METARs EXPIRÉS :
  • 080150Z 00000KT 9999 FEW022 BKN046 02/M01 Q1023 NOSIG
  • 080120Z 30001KT 9999 FEW022 BKN046 02/M01 Q1023 NOSIG
  • 080050Z VRB02KT 9999 SCT022 BKN048 02/M01 Q1023 NOSIG
  • 080020Z 23004KT 9999 FEW025 BKN048 02/M01 Q1023 NOSIG
  • 072350Z 00000KT 9999 FEW025 02/M01 Q1023 NOSIG

TAF TAF EDDL
Valide du 08 à 00h jusqu'au 09 à 06h UTC


072300Z 0800/0906 VRB02KT 9999 BKN035
PROB30
TEMPO 0805/0810 4000 BR BKN012
TEMPO 0810/0817 30005KT
BECMG 0818/0821 20006KT
BECMG 0901/0904 BKN012
TEMPO 0902/0906 4000 BR BKN009
PROB30
TEMPO 0904/0906 RA



MET'MAP, la Météo Aéronautique d'un coup d'oeil ! - Copyright ORBIFLY Décembre 2007 - Disclaimer

ORBIFLY MET'MAP TEAM :

Programmation & Développement : Alexandra Zaïnal
Sur une idée originale de : Baudouin d'Aumeries
Assistance à la programmation : Marc-Olivier Méhu
Soutien technique & logistique : Manuel Goepfert

Contact : metmap@orbifly.com




SOURCES & CREDITS :

   NOAA